sensor_id;sensor_type;location;lat;lon;timestamp;pressure;altitude;pressure_sealevel;temperature;humidity
40384;BME280;26097;42.366;23.818;2023-02-16T00:02:47;95260.44;;;-4.45;100.00
40384;BME280;26097;42.366;23.818;2023-02-16T00:05:49;95254.47;;;-4.43;100.00
40384;BME280;26097;42.366;23.818;2023-02-16T00:08:52;95251.06;;;-4.44;100.00
40384;BME280;26097;42.366;23.818;2023-02-16T00:11:53;95257.03;;;-4.40;100.00
40384;BME280;26097;42.366;23.818;2023-02-16T00:15:18;95257.88;;;-4.45;100.00
40384;BME280;26097;42.366;23.818;2023-02-16T00:18:20;95253.63;;;-4.42;100.00
40384;BME280;26097;42.366;23.818;2023-02-16T00:21:21;95250.25;;;-4.41;100.00
40384;BME280;26097;42.366;23.818;2023-02-16T00:24:22;95250.22;;;-4.43;100.00
40384;BME280;26097;42.366;23.818;2023-02-16T00:27:22;95242.59;;;-4.46;100.00
40384;BME280;26097;42.366;23.818;2023-02-16T00:30:23;95241.75;;;-4.50;100.00
40384;BME280;26097;42.366;23.818;2023-02-16T00:33:23;95239.19;;;-4.53;100.00
40384;BME280;26097;42.366;23.818;2023-02-16T00:36:24;95234.13;;;-4.43;100.00
40384;BME280;26097;42.366;23.818;2023-02-16T00:39:25;95234.97;;;-4.43;100.00
40384;BME280;26097;42.366;23.818;2023-02-16T00:42:28;95234.13;;;-4.47;100.00
40384;BME280;26097;42.366;23.818;2023-02-16T00:45:32;95232.44;;;-4.45;100.00
40384;BME280;26097;42.366;23.818;2023-02-16T00:48:35;95231.56;;;-4.45;100.00
40384;BME280;26097;42.366;23.818;2023-02-16T00:51:35;95235.81;;;-4.39;100.00
40384;BME280;26097;42.366;23.818;2023-02-16T00:54:36;95230.72;;;-4.42;100.00
40384;BME280;26097;42.366;23.818;2023-02-16T00:57:43;95231.56;;;-4.40;100.00
40384;BME280;26097;42.366;23.818;2023-02-16T01:00:50;95225.63;;;-4.39;100.00
40384;BME280;26097;42.366;23.818;2023-02-16T01:03:51;95229.03;;;-4.40;100.00
40384;BME280;26097;42.366;23.818;2023-02-16T01:06:52;95218.84;;;-4.34;100.00
40384;BME280;26097;42.366;23.818;2023-02-16T01:10:11;95228.19;;;-4.36;100.00
40384;BME280;26097;42.366;23.818;2023-02-16T01:13:32;95229.91;;;-4.40;100.00
40384;BME280;26097;42.366;23.818;2023-02-16T01:16:38;95224.81;;;-4.51;100.00
40384;BME280;26097;42.366;23.818;2023-02-16T01:19:39;95230.72;;;-4.49;100.00
40384;BME280;26097;42.366;23.818;2023-02-16T01:22:40;95221.41;;;-4.50;100.00
40384;BME280;26097;42.366;23.818;2023-02-16T01:25:40;95230.75;;;-4.52;100.00
40384;BME280;26097;42.366;23.818;2023-02-16T01:28:42;95223.91;;;-4.53;100.00
40384;BME280;26097;42.366;23.818;2023-02-16T01:31:43;95217.16;;;-4.59;100.00
40384;BME280;26097;42.366;23.818;2023-02-16T01:34:44;95221.41;;;-4.61;100.00
40384;BME280;26097;42.366;23.818;2023-02-16T01:37:44;95212.06;;;-4.66;100.00
40384;BME280;26097;42.366;23.818;2023-02-16T01:44:48;95208.63;;;-4.81;100.00
40384;BME280;26097;42.366;23.818;2023-02-16T01:47:53;95209.47;;;-4.82;100.00
40384;BME280;26097;42.366;23.818;2023-02-16T01:57:41;95205.19;;;-4.95;100.00
40384;BME280;26097;42.366;23.818;2023-02-16T02:03:52;95203.47;;;-5.04;100.00
40384;BME280;26097;42.366;23.818;2023-02-16T02:07:16;95206.06;;;-5.01;100.00
40384;BME280;26097;42.366;23.818;2023-02-16T02:10:24;95195.03;;;-5.02;100.00
40384;BME280;26097;42.366;23.818;2023-02-16T02:13:41;95205.16;;;-5.14;100.00
40384;BME280;26097;42.366;23.818;2023-02-16T02:17:07;95208.53;;;-5.18;100.00
40384;BME280;26097;42.366;23.818;2023-02-16T02:39:26;95212.72;;;-5.31;100.00
40384;BME280;26097;42.366;23.818;2023-02-16T02:42:41;95208.53;;;-5.24;100.00
40384;BME280;26097;42.366;23.818;2023-02-16T02:46:09;95206.84;;;-5.22;100.00
40384;BME280;26097;42.366;23.818;2023-02-16T02:49:12;95202.59;;;-5.22;100.00
40384;BME280;26097;42.366;23.818;2023-02-16T02:52:12;95200.91;;;-5.20;100.00
40384;BME280;26097;42.366;23.818;2023-02-16T02:55:12;95197.50;;;-5.22;100.00
40384;BME280;26097;42.366;23.818;2023-02-16T02:58:32;95199.19;;;-5.27;100.00
40384;BME280;26097;42.366;23.818;2023-02-16T03:01:56;95196.66;;;-5.28;100.00
40384;BME280;26097;42.366;23.818;2023-02-16T03:04:58;95203.41;;;-5.35;100.00
40384;BME280;26097;42.366;23.818;2023-02-16T03:08:04;95200.84;;;-5.34;100.00
40384;BME280;26097;42.366;23.818;2023-02-16T03:11:20;95193.25;;;-5.31;100.00
40384;BME280;26097;42.366;23.818;2023-02-16T03:14:57;95198.34;;;-5.31;100.00
40384;BME280;26097;42.366;23.818;2023-02-16T03:17:58;95189.84;;;-5.33;100.00
40384;BME280;26097;42.366;23.818;2023-02-16T03:21:18;95194.91;;;-5.36;100.00
40384;BME280;26097;42.366;23.818;2023-02-16T03:24:37;95187.28;;;-5.36;100.00
40384;BME280;26097;42.366;23.818;2023-02-16T03:27:57;95189.84;;;-5.37;100.00
40384;BME280;26097;42.366;23.818;2023-02-16T03:31:19;95186.44;;;-5.44;100.00
40384;BME280;26097;42.366;23.818;2023-02-16T03:34:21;95193.19;;;-5.45;100.00
40384;BME280;26097;42.366;23.818;2023-02-16T03:37:23;95186.44;;;-5.41;100.00
40384;BME280;26097;42.366;23.818;2023-02-16T03:40:26;95187.25;;;-5.43;100.00
40384;BME280;26097;42.366;23.818;2023-02-16T03:43:28;95186.41;;;-5.47;100.00
40384;BME280;26097;42.366;23.818;2023-02-16T03:46:28;95193.13;;;-5.55;100.00
40384;BME280;26097;42.366;23.818;2023-02-16T03:49:29;95191.44;;;-5.60;100.00
40384;BME280;26097;42.366;23.818;2023-02-16T03:52:29;95193.13;;;-5.60;100.00
40384;BME280;26097;42.366;23.818;2023-02-16T03:55:29;95194.81;;;-5.61;100.00
40384;BME280;26097;42.366;23.818;2023-02-16T03:58:30;95192.28;;;-5.64;100.00
40384;BME280;26097;42.366;23.818;2023-02-16T04:01:30;95189.72;;;-5.64;100.00
40384;BME280;26097;42.366;23.818;2023-02-16T04:04:31;95187.16;;;-5.68;100.00
40384;BME280;26097;42.366;23.818;2023-02-16T04:07:31;95189.72;;;-5.67;100.00
40384;BME280;26097;42.366;23.818;2023-02-16T04:10:32;95177.88;;;-5.68;100.00
40384;BME280;26097;42.366;23.818;2023-02-16T04:13:32;95180.38;;;-5.72;100.00
40384;BME280;26097;42.366;23.818;2023-02-16T04:16:32;95176.97;;;-5.78;100.00
40384;BME280;26097;42.366;23.818;2023-02-16T04:19:33;95181.22;;;-5.77;100.00
40384;BME280;26097;42.366;23.818;2023-02-16T04:22:33;95178.66;;;-5.72;100.00
40384;BME280;26097;42.366;23.818;2023-02-16T04:25:34;95182.03;;;-5.73;100.00
40384;BME280;26097;42.366;23.818;2023-02-16T04:28:34;95177.81;;;-5.74;100.00
40384;BME280;26097;42.366;23.818;2023-02-16T04:31:35;95181.22;;;-5.72;100.00
40384;BME280;26097;42.366;23.818;2023-02-16T04:34:35;95182.88;;;-5.83;100.00
40384;BME280;26097;42.366;23.818;2023-02-16T04:37:35;95181.09;;;-5.91;100.00
40384;BME280;26097;42.366;23.818;2023-02-16T04:40:36;95186.19;;;-5.94;100.00
40384;BME280;26097;42.366;23.818;2023-02-16T04:43:36;95184.50;;;-5.90;100.00
40384;BME280;26097;42.366;23.818;2023-02-16T04:46:37;95183.66;;;-5.92;100.00
40384;BME280;26097;42.366;23.818;2023-02-16T04:49:37;95187.94;;;-5.86;100.00
40384;BME280;26097;42.366;23.818;2023-02-16T04:52:37;95191.25;;;-5.94;100.00
40384;BME280;26097;42.366;23.818;2023-02-16T04:55:38;95194.59;;;-5.99;100.00
40384;BME280;26097;42.366;23.818;2023-02-16T04:58:38;95191.25;;;-6.03;100.00
40384;BME280;26097;42.366;23.818;2023-02-16T05:01:39;95195.44;;;-6.00;100.00
40384;BME280;26097;42.366;23.818;2023-02-16T05:04:40;95203.94;;;-5.97;100.00
40384;BME280;26097;42.366;23.818;2023-02-16T05:07:41;95192.94;;;-5.93;100.00
40384;BME280;26097;42.366;23.818;2023-02-16T05:10:41;95193.78;;;-5.94;100.00
40384;BME280;26097;42.366;23.818;2023-02-16T05:13:42;95207.34;;;-5.96;100.00
40384;BME280;26097;42.366;23.818;2023-02-16T05:17:01;95206.47;;;-5.97;100.00
40384;BME280;26097;42.366;23.818;2023-02-16T05:20:01;95203.06;;;-5.99;100.00
40384;BME280;26097;42.366;23.818;2023-02-16T05:23:02;95205.56;;;-6.11;100.00
40384;BME280;26097;42.366;23.818;2023-02-16T05:26:02;95204.75;;;-6.07;100.00
40384;BME280;26097;42.366;23.818;2023-02-16T05:29:03;95205.63;;;-6.04;100.00
40384;BME280;26097;42.366;23.818;2023-02-16T05:32:04;95209.88;;;-5.95;100.00
40384;BME280;26097;42.366;23.818;2023-02-16T05:35:05;95219.19;;;-5.95;100.00
40384;BME280;26097;42.366;23.818;2023-02-16T05:38:05;95208.19;;;-5.93;100.00
40384;BME280;26097;42.366;23.818;2023-02-16T05:41:06;95215.03;;;-5.85;100.00
40384;BME280;26097;42.366;23.818;2023-02-16T05:44:07;95216.72;;;-5.81;100.00
40384;BME280;26097;42.366;23.818;2023-02-16T05:47:07;95226.94;;;-5.74;100.00
40384;BME280;26097;42.366;23.818;2023-02-16T05:50:08;95227.78;;;-5.71;100.00
40384;BME280;26097;42.366;23.818;2023-02-16T05:53:08;95232.06;;;-5.66;100.00
40384;BME280;26097;42.366;23.818;2023-02-16T05:56:09;95220.22;;;-5.57;100.00
40384;BME280;26097;42.366;23.818;2023-02-16T05:59:10;95224.50;;;-5.49;100.00
40384;BME280;26097;42.366;23.818;2023-02-16T06:02:10;95227.13;;;-5.33;100.00
40384;BME280;26097;42.366;23.818;2023-02-16T06:05:10;95227.16;;;-5.25;100.00
40384;BME280;26097;42.366;23.818;2023-02-16T06:08:11;95228.88;;;-5.12;100.00
40384;BME280;26097;42.366;23.818;2023-02-16T06:11:11;95223.84;;;-4.96;100.00
40384;BME280;26097;42.366;23.818;2023-02-16T06:14:30;95224.75;;;-4.79;100.00
40384;BME280;26097;42.366;23.818;2023-02-16T06:17:31;95227.31;;;-4.66;100.00
40384;BME280;26097;42.366;23.818;2023-02-16T06:20:31;95227.34;;;-4.51;100.00
40384;BME280;26097;42.366;23.818;2023-02-16T06:23:31;95231.59;;;-4.36;100.00
40384;BME280;26097;42.366;23.818;2023-02-16T06:26:32;95233.28;;;-4.21;100.00
40384;BME280;26097;42.366;23.818;2023-02-16T06:29:33;95227.31;;;-4.06;100.00
40384;BME280;26097;42.366;23.818;2023-02-16T06:32:33;95235.84;;;-3.93;100.00
40384;BME280;26097;42.366;23.818;2023-02-16T06:35:33;95241.72;;;-3.78;100.00
40384;BME280;26097;42.366;23.818;2023-02-16T06:38:34;95239.16;;;-3.61;100.00
40384;BME280;26097;42.366;23.818;2023-02-16T06:41:34;95231.47;;;-3.39;100.00
40384;BME280;26097;42.366;23.818;2023-02-16T06:44:39;95232.25;;;-3.23;100.00
40384;BME280;26097;42.366;23.818;2023-02-16T06:47:43;95236.41;;;-3.04;100.00
40384;BME280;26097;42.366;23.818;2023-02-16T06:50:43;95230.38;;;-2.84;100.00
40384;BME280;26097;42.366;23.818;2023-02-16T06:53:44;95225.16;;;-2.67;100.00
40384;BME280;26097;42.366;23.818;2023-02-16T06:56:45;95235.28;;;-2.50;100.00
40384;BME280;26097;42.366;23.818;2023-02-16T06:59:45;95234.31;;;-2.35;100.00
40384;BME280;26097;42.366;23.818;2023-02-16T07:02:46;95239.31;;;-2.21;100.00
40384;BME280;26097;42.366;23.818;2023-02-16T07:05:48;95235.78;;;-2.04;100.00
40384;BME280;26097;42.366;23.818;2023-02-16T07:08:48;95247.59;;;-1.86;100.00
40384;BME280;26097;42.366;23.818;2023-02-16T07:11:49;95246.56;;;-1.69;100.00
40384;BME280;26097;42.366;23.818;2023-02-16T07:14:49;95237.09;;;-1.56;100.00
40384;BME280;26097;42.366;23.818;2023-02-16T07:17:50;95235.19;;;-1.40;100.00
40384;BME280;26097;42.366;23.818;2023-02-16T07:20:50;95235.91;;;-1.29;100.00
40384;BME280;26097;42.366;23.818;2023-02-16T07:23:51;95232.41;;;-1.20;100.00
40384;BME280;26097;42.366;23.818;2023-02-16T07:26:51;95229.72;;;-1.08;100.00
40384;BME280;26097;42.366;23.818;2023-02-16T07:29:52;95226.16;;;-0.94;100.00
40384;BME280;26097;42.366;23.818;2023-02-16T07:32:52;95228.47;;;-0.79;100.00
40384;BME280;26097;42.366;23.818;2023-02-16T07:35:53;95228.22;;;-0.59;100.00
40384;BME280;26097;42.366;23.818;2023-02-16T07:38:53;95234.78;;;-0.40;100.00
40384;BME280;26097;42.366;23.818;2023-02-16T07:41:54;95228.63;;;-0.27;100.00
40384;BME280;26097;42.366;23.818;2023-02-16T07:44:54;95234.38;;;-0.12;100.00
40384;BME280;26097;42.366;23.818;2023-02-16T07:47:55;95227.28;;;0.05;100.00
40384;BME280;26097;42.366;23.818;2023-02-16T07:50:55;95221.81;;;0.25;100.00
40384;BME280;26097;42.366;23.818;2023-02-16T07:53:57;95227.56;;;0.38;100.00
40384;BME280;26097;42.366;23.818;2023-02-16T07:56:57;95219.66;;;0.51;100.00
40384;BME280;26097;42.366;23.818;2023-02-16T07:59:58;95221.66;;;0.80;100.00
40384;BME280;26097;42.366;23.818;2023-02-16T08:02:58;95218.00;;;0.92;100.00
40384;BME280;26097;42.366;23.818;2023-02-16T08:06:00;95222.25;;;0.93;100.00
40384;BME280;26097;42.366;23.818;2023-02-16T08:09:00;95213.63;;;0.97;100.00
40384;BME280;26097;42.366;23.818;2023-02-16T08:12:00;95212.66;;;1.03;100.00
40384;BME280;26097;42.366;23.818;2023-02-16T08:15:01;95209.94;;;1.11;100.00
40384;BME280;26097;42.366;23.818;2023-02-16T08:18:03;95209.75;;;1.20;100.00
40384;BME280;26097;42.366;23.818;2023-02-16T08:21:24;95204.34;;;1.33;100.00
40384;BME280;26097;42.366;23.818;2023-02-16T08:24:26;95223.78;;;1.45;100.00
40384;BME280;26097;42.366;23.818;2023-02-16T08:27:27;95205.44;;;1.62;100.00
40384;BME280;26097;42.366;23.818;2023-02-16T08:30:28;95210.22;;;1.77;100.00
40384;BME280;26097;42.366;23.818;2023-02-16T08:33:28;95207.41;;;1.87;100.00
40384;BME280;26097;42.366;23.818;2023-02-16T08:36:34;95210.69;;;1.93;100.00
40384;BME280;26097;42.366;23.818;2023-02-16T08:39:35;95208.59;;;2.09;100.00
40384;BME280;26097;42.366;23.818;2023-02-16T08:42:36;95213.16;;;2.33;100.00
40384;BME280;26097;42.366;23.818;2023-02-16T08:45:37;95212.91;;;2.42;100.00
40384;BME280;26097;42.366;23.818;2023-02-16T08:48:37;95212.72;;;2.50;100.00
40384;BME280;26097;42.366;23.818;2023-02-16T08:51:45;95207.78;;;2.74;100.00
40384;BME280;26097;42.366;23.818;2023-02-16T08:54:46;95212.69;;;2.83;100.00
40384;BME280;26097;42.366;23.818;2023-02-16T08:57:47;95209.25;;;2.84;100.00
40384;BME280;26097;42.366;23.818;2023-02-16T09:00:48;95211.44;;;2.98;100.00
40384;BME280;26097;42.366;23.818;2023-02-16T09:03:49;95210.13;;;3.13;100.00
40384;BME280;26097;42.366;23.818;2023-02-16T09:06:50;95216.81;;;3.20;100.00
40384;BME280;26097;42.366;23.818;2023-02-16T09:09:51;95217.53;;;3.25;100.00
40384;BME280;26097;42.366;23.818;2023-02-16T09:12:52;95212.03;;;3.38;100.00
40384;BME280;26097;42.366;23.818;2023-02-16T09:15:52;95208.13;;;3.53;100.00
40384;BME280;26097;42.366;23.818;2023-02-16T09:18:53;95213.00;;;3.62;100.00
40384;BME280;26097;42.366;23.818;2023-02-16T09:21:53;95214.28;;;3.77;100.00
40384;BME280;26097;42.366;23.818;2023-02-16T09:24:55;95211.28;;;3.90;100.00
40384;BME280;26097;42.366;23.818;2023-02-16T09:27:56;95203.88;;;4.07;100.00
40384;BME280;26097;42.366;23.818;2023-02-16T09:30:56;95203.63;;;4.15;100.00
40384;BME280;26097;42.366;23.818;2023-02-16T09:34:04;95199.78;;;4.27;100.00
40384;BME280;26097;42.366;23.818;2023-02-16T09:37:05;95195.81;;;4.43;100.00
40384;BME280;26097;42.366;23.818;2023-02-16T09:40:06;95197.59;;;4.67;100.00
40384;BME280;26097;42.366;23.818;2023-02-16T09:46:45;95190.94;;;4.85;100.00
40384;BME280;26097;42.366;23.818;2023-02-16T09:49:46;95187.81;;;5.00;100.00
40384;BME280;26097;42.366;23.818;2023-02-16T09:52:56;95183.63;;;5.20;100.00
40384;BME280;26097;42.366;23.818;2023-02-16T09:56:13;95177.56;;;5.21;100.00
40384;BME280;26097;42.366;23.818;2023-02-16T10:06:35;95174.53;;;5.56;100.00
40384;BME280;26097;42.366;23.818;2023-02-16T10:09:46;95168.09;;;5.89;100.00
40384;BME280;26097;42.366;23.818;2023-02-16T10:12:53;95163.13;;;5.84;100.00
40384;BME280;26097;42.366;23.818;2023-02-16T10:15:55;95162.56;;;5.98;100.00
40384;BME280;26097;42.366;23.818;2023-02-16T10:19:00;95149.34;;;6.26;100.00
40384;BME280;26097;42.366;23.818;2023-02-16T10:22:05;95152.13;;;6.42;100.00
40384;BME280;26097;42.366;23.818;2023-02-16T10:25:12;95152.56;;;6.52;100.00
40384;BME280;26097;42.366;23.818;2023-02-16T10:28:27;95146.28;;;6.58;77.48
40384;BME280;26097;42.366;23.818;2023-02-16T10:31:40;95147.91;;;6.81;74.47
40384;BME280;26097;42.366;23.818;2023-02-16T10:35:15;95146.22;;;6.99;69.77
40384;BME280;26097;42.366;23.818;2023-02-16T10:38:45;95135.16;;;7.15;66.42
40384;BME280;26097;42.366;23.818;2023-02-16T10:42:02;95137.31;;;7.24;66.21
40384;BME280;26097;42.366;23.818;2023-02-16T10:48:10;95138.91;;;7.46;67.37
40384;BME280;26097;42.366;23.818;2023-02-16T10:51:14;95126.75;;;7.48;65.49
40384;BME280;26097;42.366;23.818;2023-02-16T10:54:19;95126.75;;;7.48;65.70
40384;BME280;26097;42.366;23.818;2023-02-16T10:57:26;95126.94;;;7.80;64.60
40384;BME280;26097;42.366;23.818;2023-02-16T11:03:48;95116.91;;;8.09;63.97
40384;BME280;26097;42.366;23.818;2023-02-16T11:10:19;95108.63;;;8.19;61.23
40384;BME280;26097;42.366;23.818;2023-02-16T11:16:24;95110.16;;;8.40;61.58
40384;BME280;26097;42.366;23.818;2023-02-16T11:19:25;95107.41;;;8.61;57.02
40384;BME280;26097;42.366;23.818;2023-02-16T11:22:29;95106.44;;;8.80;56.58
40384;BME280;26097;42.366;23.818;2023-02-16T11:25:30;95094.13;;;8.83;57.29
40384;BME280;26097;42.366;23.818;2023-02-16T11:28:36;95103.38;;;8.89;57.54
40384;BME280;26097;42.366;23.818;2023-02-16T11:31:38;95098.94;;;9.07;52.72
40384;BME280;26097;42.366;23.818;2023-02-16T11:34:45;95092.41;;;9.16;53.57
40384;BME280;26097;42.366;23.818;2023-02-16T11:37:46;95084.09;;;9.25;55.24
40384;BME280;26097;42.366;23.818;2023-02-16T11:40:50;95081.91;;;9.34;52.47
40384;BME280;26097;42.366;23.818;2023-02-16T11:43:52;95086.34;;;9.48;51.29
40384;BME280;26097;42.366;23.818;2023-02-16T11:46:54;95078.34;;;9.51;51.63
40384;BME280;26097;42.366;23.818;2023-02-16T11:53:15;95066.28;;;9.66;52.60
40384;BME280;26097;42.366;23.818;2023-02-16T11:56:28;95062.78;;;9.81;48.90
40384;BME280;26097;42.366;23.818;2023-02-16T11:59:36;95071.34;;;9.83;49.91
40384;BME280;26097;42.366;23.818;2023-02-16T12:06:06;95061.31;;;10.22;48.60
40384;BME280;26097;42.366;23.818;2023-02-16T12:09:34;95056.00;;;10.24;47.62
40384;BME280;26097;42.366;23.818;2023-02-16T12:19:43;95046.19;;;10.43;47.41
40384;BME280;26097;42.366;23.818;2023-02-16T12:22:48;95046.84;;;10.47;46.50
40384;BME280;26097;42.366;23.818;2023-02-16T12:39:17;95025.88;;;10.78;44.30
40384;BME280;26097;42.366;23.818;2023-02-16T12:42:35;95017.78;;;10.68;44.26
40384;BME280;26097;42.366;23.818;2023-02-16T12:45:42;95008.00;;;10.86;44.21
40384;BME280;26097;42.366;23.818;2023-02-16T12:48:49;95013.47;;;10.96;43.77
40384;BME280;26097;42.366;23.818;2023-02-16T12:52:05;95018.22;;;11.04;43.17
40384;BME280;26097;42.366;23.818;2023-02-16T12:58:31;95011.66;;;11.11;42.46
40384;BME280;26097;42.366;23.818;2023-02-16T13:01:34;95007.19;;;11.13;42.48
40384;BME280;26097;42.366;23.818;2023-02-16T13:07:51;95005.97;;;11.19;43.61
40384;BME280;26097;42.366;23.818;2023-02-16T13:11:03;94992.22;;;11.02;41.92
40384;BME280;26097;42.366;23.818;2023-02-16T13:14:16;94998.72;;;11.09;42.89
40384;BME280;26097;42.366;23.818;2023-02-16T13:17:22;94992.63;;;11.23;43.52
40384;BME280;26097;42.366;23.818;2023-02-16T13:20:27;94984.41;;;11.29;42.92
40384;BME280;26097;42.366;23.818;2023-02-16T13:23:34;94989.81;;;11.26;41.26
40384;BME280;26097;42.366;23.818;2023-02-16T13:26:58;94980.34;;;11.11;41.80
40384;BME280;26097;42.366;23.818;2023-02-16T13:43:59;94977.66;;;11.40;41.32
40384;BME280;26097;42.366;23.818;2023-02-16T13:47:02;94971.88;;;11.35;41.90
40384;BME280;26097;42.366;23.818;2023-02-16T13:50:13;94970.34;;;11.45;39.70
40384;BME280;26097;42.366;23.818;2023-02-16T13:53:24;94968.72;;;11.57;41.84
40384;BME280;26097;42.366;23.818;2023-02-16T14:02:52;94969.25;;;11.62;40.54
40384;BME280;26097;42.366;23.818;2023-02-16T14:05:54;94969.47;;;11.72;42.44
40384;BME280;26097;42.366;23.818;2023-02-16T14:12:29;94963.34;;;11.46;43.34
40384;BME280;26097;42.366;23.818;2023-02-16T14:15:31;94970.94;;;11.36;44.11
40384;BME280;26097;42.366;23.818;2023-02-16T14:21:48;94971.38;;;11.15;45.09
40384;BME280;26097;42.366;23.818;2023-02-16T14:24:55;94970.16;;;11.21;44.88
40384;BME280;26097;42.366;23.818;2023-02-16T14:31:31;94969.88;;;10.98;45.66
40384;BME280;26097;42.366;23.818;2023-02-16T14:34:50;94970.75;;;10.84;45.57
40384;BME280;26097;42.366;23.818;2023-02-16T14:41:04;94963.69;;;10.57;46.13
40384;BME280;26097;42.366;23.818;2023-02-16T14:57:03;94968.28;;;9.65;47.93
40384;BME280;26097;42.366;23.818;2023-02-16T15:00:33;94969.16;;;9.49;48.68
40384;BME280;26097;42.366;23.818;2023-02-16T15:06:45;94981.16;;;9.05;49.57
40384;BME280;26097;42.366;23.818;2023-02-16T15:09:48;94971.09;;;8.83;50.14
40384;BME280;26097;42.366;23.818;2023-02-16T15:12:56;94977.38;;;8.63;50.31
40384;BME280;26097;42.366;23.818;2023-02-16T15:16:02;94972.84;;;8.33;51.09
40384;BME280;26097;42.366;23.818;2023-02-16T15:19:08;94978.44;;;8.09;51.57
40384;BME280;26097;42.366;23.818;2023-02-16T15:22:20;94979.91;;;7.79;52.28
40384;BME280;26097;42.366;23.818;2023-02-16T15:25:37;94971.22;;;7.45;53.31
40384;BME280;26097;42.366;23.818;2023-02-16T15:28:38;94972.13;;;7.09;54.17
40384;BME280;26097;42.366;23.818;2023-02-16T15:31:41;94983.00;;;6.79;54.80
40384;BME280;26097;42.366;23.818;2023-02-16T15:34:43;94979.13;;;6.51;55.46
40384;BME280;26097;42.366;23.818;2023-02-16T15:37:44;94984.25;;;6.12;56.24
40384;BME280;26097;42.366;23.818;2023-02-16T15:40:44;94980.38;;;5.81;56.78
40384;BME280;26097;42.366;23.818;2023-02-16T15:43:47;94982.38;;;5.54;57.53
40384;BME280;26097;42.366;23.818;2023-02-16T15:46:48;94985.44;;;5.21;58.39
40384;BME280;26097;42.366;23.818;2023-02-16T15:49:49;94982.66;;;4.82;59.45
40384;BME280;26097;42.366;23.818;2023-02-16T15:52:50;94983.88;;;4.50;60.26
40384;BME280;26097;42.366;23.818;2023-02-16T15:55:50;94990.31;;;4.16;61.32
40384;BME280;26097;42.366;23.818;2023-02-16T15:58:51;94992.91;;;3.90;62.27
40384;BME280;26097;42.366;23.818;2023-02-16T16:05:23;94997.69;;;3.25;65.99
40384;BME280;26097;42.366;23.818;2023-02-16T16:08:26;95004.72;;;2.91;65.35
40384;BME280;26097;42.366;23.818;2023-02-16T16:11:27;95005.22;;;2.76;67.08
40384;BME280;26097;42.366;23.818;2023-02-16T16:14:31;95008.66;;;2.46;67.47
40384;BME280;26097;42.366;23.818;2023-02-16T16:17:33;95011.88;;;2.23;68.89
40384;BME280;26097;42.366;23.818;2023-02-16T16:20:37;95005.75;;;1.97;69.58
40384;BME280;26097;42.366;23.818;2023-02-16T16:23:54;95008.25;;;1.67;71.87
40384;BME280;26097;42.366;23.818;2023-02-16T16:26:58;95019.00;;;1.48;72.16
40384;BME280;26097;42.366;23.818;2023-02-16T16:34:01;95028.56;;;1.07;77.87
40384;BME280;26097;42.366;23.818;2023-02-16T16:37:02;95029.94;;;0.84;77.03
40384;BME280;26097;42.366;23.818;2023-02-16T16:40:23;95030.38;;;0.64;81.04
40384;BME280;26097;42.366;23.818;2023-02-16T16:43:29;95033.31;;;0.47;81.51
40384;BME280;26097;42.366;23.818;2023-02-16T16:46:30;95040.31;;;0.38;83.68
40384;BME280;26097;42.366;23.818;2023-02-16T16:49:32;95038.84;;;0.28;84.85
40384;BME280;26097;42.366;23.818;2023-02-16T16:52:41;95039.06;;;0.16;87.04
40384;BME280;26097;42.366;23.818;2023-02-16T16:55:41;95044.41;;;0.06;88.49
40384;BME280;26097;42.366;23.818;2023-02-16T16:58:42;95048.06;;;-0.07;89.08
40384;BME280;26097;42.366;23.818;2023-02-16T17:01:42;95045.72;;;-0.20;90.43
40384;BME280;26097;42.366;23.818;2023-02-16T17:04:45;95041.59;;;-0.27;93.05
40384;BME280;26097;42.366;23.818;2023-02-16T17:07:45;95046.91;;;-0.39;93.40
40384;BME280;26097;42.366;23.818;2023-02-16T17:10:48;95043.72;;;-0.51;95.93
40384;BME280;26097;42.366;23.818;2023-02-16T17:13:48;95044.78;;;-0.64;98.10
40384;BME280;26097;42.366;23.818;2023-02-16T17:16:50;95047.56;;;-0.77;99.38
40384;BME280;26097;42.366;23.818;2023-02-16T17:19:51;95052.72;;;-0.80;100.00
40384;BME280;26097;42.366;23.818;2023-02-16T17:22:52;95045.13;;;-0.84;100.00
40384;BME280;26097;42.366;23.818;2023-02-16T17:25:52;95050.31;;;-0.88;100.00
40384;BME280;26097;42.366;23.818;2023-02-16T17:28:52;95048.69;;;-0.93;100.00
40384;BME280;26097;42.366;23.818;2023-02-16T17:31:53;95045.47;;;-1.06;100.00
40384;BME280;26097;42.366;23.818;2023-02-16T17:34:53;95043.91;;;-1.18;100.00
40384;BME280;26097;42.366;23.818;2023-02-16T17:37:53;95038.88;;;-1.23;100.00
40384;BME280;26097;42.366;23.818;2023-02-16T17:40:55;95044.91;;;-1.27;100.00
40384;BME280;26097;42.366;23.818;2023-02-16T17:43:55;95042.41;;;-1.32;100.00
40384;BME280;26097;42.366;23.818;2023-02-16T17:46:56;95044.97;;;-1.32;100.00
40384;BME280;26097;42.366;23.818;2023-02-16T17:49:56;95046.72;;;-1.34;100.00
40384;BME280;26097;42.366;23.818;2023-02-16T17:52:57;95039.09;;;-1.38;100.00
40384;BME280;26097;42.366;23.818;2023-02-16T17:55:58;95039.09;;;-1.40;100.00
40384;BME280;26097;42.366;23.818;2023-02-16T17:58:58;95044.31;;;-1.45;100.00
40384;BME280;26097;42.366;23.818;2023-02-16T18:01:59;95039.19;;;-1.48;100.00
40384;BME280;26097;42.366;23.818;2023-02-16T18:04:59;95038.47;;;-1.54;100.00
40384;BME280;26097;42.366;23.818;2023-02-16T18:08:00;95044.47;;;-1.59;100.00
40384;BME280;26097;42.366;23.818;2023-02-16T18:11:01;95047.06;;;-1.62;100.00
40384;BME280;26097;42.366;23.818;2023-02-16T18:14:01;95049.66;;;-1.65;100.00
40384;BME280;26097;42.366;23.818;2023-02-16T18:17:03;95039.50;;;-1.69;100.00
40384;BME280;26097;42.366;23.818;2023-02-16T18:20:04;95043.88;;;-1.78;100.00
40384;BME280;26097;42.366;23.818;2023-02-16T18:23:05;95047.34;;;-1.83;100.00
40384;BME280;26097;42.366;23.818;2023-02-16T18:26:06;95045.59;;;-1.81;100.00
40384;BME280;26097;42.366;23.818;2023-02-16T18:29:07;95038.06;;;-1.92;100.00